Time;durP1;ratioP1;P1;durP2;ratioP2;P2;SDS_P1;SDS_P2;PMS_P1;PMS_P2;Temp;Humidity;BMP_temperature;BMP_pressure;BME280_temperature;BME280_humidity;BME280_pressure;Samples;Min_cycle;Max_cycle;Signal;HPM_P1;HPM_P2
2023/10/07 00:03:00;;;;;;;11.18;4.65;;;;;;;;;;4995981;28;20210;-83
2023/10/07 00:05:46;;;;;;;10.88;5.50;;;;;;;;;;4996484;28;20176;-83
2023/10/07 00:08:16;;;;;;;20.00;5.95;;;;;;;;;;4992184;28;20195;-83
2023/10/07 00:10:43;;;;;;;18.50;6.90;;;;;;;;;;4994353;28;20183;-85
2023/10/07 00:13:12;;;;;;;14.05;6.03;;;;;;;;;;4995288;28;20256;-84
2023/10/07 00:15:39;;;;;;;11.20;5.13;;;;;;;;;;4995232;28;20721;-83
2023/10/07 00:18:11;;;;;;;13.80;5.03;;;;;;;;;;4994409;28;20208;-83
2023/10/07 00:20:39;;;;;;;15.20;5.60;;;;;;;;;;4997498;28;20720;-83
2023/10/07 00:23:06;;;;;;;11.30;5.00;;;;;;;;;;4994473;28;20281;-85
2023/10/07 00:25:32;;;;;;;13.20;5.85;;;;;;;;;;5009912;28;20168;-84
2023/10/07 00:28:00;;;;;;;19.23;6.32;;;;;;;;;;4990047;28;20350;-83
2023/10/07 00:30:28;;;;;;;18.05;6.72;;;;;;;;;;4992797;28;20202;-83
2023/10/07 00:32:55;;;;;;;14.50;6.35;;;;;;;;;;4995580;28;20176;-84
2023/10/07 00:35:23;;;;;;;11.27;4.90;;;;;;;;;;4997891;28;20273;-83
2023/10/07 00:37:48;;;;;;;16.67;6.20;;;;;;;;;;4999947;28;20208;-83
2023/10/07 00:40:41;;;;;;;11.93;5.85;;;;;;;;;;4994257;28;20299;-86
2023/10/07 00:43:09;;;;;;;13.27;6.32;;;;;;;;;;5000720;28;20199;-84
2023/10/07 00:45:34;;;;;;;12.23;5.20;;;;;;;;;;4997495;28;20172;-84
2023/10/07 00:48:04;;;;;;;20.17;5.85;;;;;;;;;;4997474;28;20211;-83
2023/10/07 00:50:30;;;;;;;15.90;5.97;;;;;;;;;;4998286;28;20175;-84
2023/10/07 00:52:57;;;;;;;10.50;6.38;;;;;;;;;;4998359;28;20183;-90
2023/10/07 00:55:46;;;;;;;17.13;6.70;;;;;;;;;;4997010;28;20191;-83
2023/10/07 01:00:47;;;;;;;16.48;6.18;;;;;;;;;;4993286;28;20664;-82
2023/10/07 01:11:24;;;;;;;14.93;6.25;;;;;;;;;;5005513;28;20174;-83
2023/10/07 01:13:50;;;;;;;13.98;6.72;;;;;;;;;;4998873;28;20270;-82
2023/10/07 01:16:34;;;;;;;17.23;8.10;;;;;;;;;;4995558;28;20249;-86
2023/10/07 01:19:14;;;;;;;15.10;6.00;;;;;;;;;;4990684;28;20200;-82
2023/10/07 01:21:47;;;;;;;25.73;7.25;;;;;;;;;;5001666;28;20490;-82
2023/10/07 01:24:13;;;;;;;10.43;6.70;;;;;;;;;;5003597;28;20238;-86
2023/10/07 01:26:40;;;;;;;14.80;6.65;;;;;;;;;;5000523;28;20175;-86
2023/10/07 01:29:15;;;;;;;19.85;6.55;;;;;;;;;;4999749;28;20192;-84
2023/10/07 01:31:59;;;;;;;21.30;6.82;;;;;;;;;;5000298;28;20266;-83
2023/10/07 01:34:24;;;;;;;15.77;7.38;;;;;;;;;;5012782;28;20179;-83
2023/10/07 01:36:51;;;;;;;16.27;6.63;;;;;;;;;;4996122;28;20183;-83
2023/10/07 01:39:16;;;;;;;18.48;7.80;;;;;;;;;;4998101;28;20223;-84
2023/10/07 01:41:42;;;;;;;13.00;7.22;;;;;;;;;;4996835;28;20214;-83
2023/10/07 01:44:10;;;;;;;12.93;6.25;;;;;;;;;;4994886;28;20203;-86
2023/10/07 01:46:38;;;;;;;15.85;6.30;;;;;;;;;;4996177;28;20247;-83
2023/10/07 01:49:06;;;;;;;12.35;7.32;;;;;;;;;;4996886;28;20203;-83
2023/10/07 01:51:32;;;;;;;13.90;6.75;;;;;;;;;;4997182;28;20653;-84
2023/10/07 01:54:04;;;;;;;20.27;7.40;;;;;;;;;;4994669;28;20180;-84
2023/10/07 01:56:29;;;;;;;17.65;7.47;;;;;;;;;;4996809;28;20192;-83
2023/10/07 01:59:04;;;;;;;12.40;5.32;;;;;;;;;;4996383;28;20196;-84
2023/10/07 02:01:35;;;;;;;19.63;7.63;;;;;;;;;;4997510;28;20649;-83
2023/10/07 02:04:06;;;;;;;12.20;6.55;;;;;;;;;;5002346;28;20760;-84
2023/10/07 02:06:42;;;;;;;10.93;6.20;;;;;;;;;;4995981;28;20187;-83
2023/10/07 02:09:08;;;;;;;18.48;7.15;;;;;;;;;;4996283;28;20195;-83
2023/10/07 02:11:36;;;;;;;15.48;6.68;;;;;;;;;;4995766;28;20195;-83
2023/10/07 02:14:02;;;;;;;16.90;6.78;;;;;;;;;;4995934;28;20182;-83
2023/10/07 02:16:27;;;;;;;14.25;6.55;;;;;;;;;;4996950;28;20234;-83
2023/10/07 02:18:53;;;;;;;19.05;7.38;;;;;;;;;;5000869;28;20218;-83
2023/10/07 02:21:21;;;;;;;19.73;6.45;;;;;;;;;;4995688;28;20202;-83
2023/10/07 02:23:47;;;;;;;14.05;7.53;;;;;;;;;;4996932;28;20199;-83
2023/10/07 02:26:19;;;;;;;12.52;6.95;;;;;;;;;;4994056;28;20263;-84
2023/10/07 02:28:45;;;;;;;13.38;5.20;;;;;;;;;;4995356;28;20266;-85
2023/10/07 02:31:17;;;;;;;15.02;6.43;;;;;;;;;;4996247;28;20259;-86
2023/10/07 02:33:43;;;;;;;17.98;7.05;;;;;;;;;;4997401;28;20183;-84
2023/10/07 02:36:21;;;;;;;15.45;7.55;;;;;;;;;;4997429;28;20322;-86
2023/10/07 02:38:53;;;;;;;24.58;7.70;;;;;;;;;;5013170;28;20199;-84
2023/10/07 02:41:21;;;;;;;18.70;7.93;;;;;;;;;;4994499;28;20179;-87
2023/10/07 02:43:49;;;;;;;15.07;7.00;;;;;;;;;;4995147;28;20291;-82
2023/10/07 02:46:27;;;;;;;16.75;6.95;;;;;;;;;;4996806;28;20238;-82
2023/10/07 02:49:01;;;;;;;13.32;6.28;;;;;;;;;;5012510;28;20195;-82
2023/10/07 02:51:27;;;;;;;12.52;6.30;;;;;;;;;;4994248;28;20173;-84
2023/10/07 02:53:59;;;;;;;16.33;7.35;;;;;;;;;;4994958;28;20180;-82
2023/10/07 02:56:24;;;;;;;14.43;6.47;;;;;;;;;;4996868;28;20210;-82
2023/10/07 02:59:00;;;;;;;18.15;6.65;;;;;;;;;;4998114;28;20212;-83
2023/10/07 03:01:26;;;;;;;14.02;6.55;;;;;;;;;;5003003;28;20186;-83
2023/10/07 03:03:52;;;;;;;15.82;5.90;;;;;;;;;;5006633;28;20200;-84
2023/10/07 03:06:17;;;;;;;14.43;6.60;;;;;;;;;;5014291;28;20191;-82
2023/10/07 03:11:20;;;;;;;12.20;5.70;;;;;;;;;;4997581;28;20171;-83
2023/10/07 03:13:45;;;;;;;14.35;6.93;;;;;;;;;;4997051;28;20170;-84
2023/10/07 03:18:55;;;;;;;19.67;6.20;;;;;;;;;;4998573;28;20199;-83
2023/10/07 03:21:35;;;;;;;23.50;7.32;;;;;;;;;;4995742;28;20183;-86
2023/10/07 03:24:00;;;;;;;17.58;7.15;;;;;;;;;;4993672;28;20207;-83
2023/10/07 03:26:26;;;;;;;29.63;6.38;;;;;;;;;;5012943;28;20698;-83
2023/10/07 03:28:53;;;;;;;11.48;6.18;;;;;;;;;;5011658;28;20211;-83
2023/10/07 03:31:20;;;;;;;16.48;5.88;;;;;;;;;;4995925;28;20180;-83
2023/10/07 03:33:50;;;;;;;14.70;4.80;;;;;;;;;;4996075;28;20198;-85
2023/10/07 03:38:55;;;;;;;18.08;5.53;;;;;;;;;;4989679;28;20188;-84
2023/10/07 03:41:21;;;;;;;15.60;5.35;;;;;;;;;;4994586;28;20187;-83
2023/10/07 03:43:54;;;;;;;13.07;5.43;;;;;;;;;;4999102;28;20202;-83
2023/10/07 03:46:21;;;;;;;16.45;5.63;;;;;;;;;;5004384;28;20242;-83
2023/10/07 03:48:55;;;;;;;13.82;5.10;;;;;;;;;;4995022;28;20249;-83
2023/10/07 03:51:30;;;;;;;19.80;5.05;;;;;;;;;;5017862;28;20159;-83
2023/10/07 03:54:00;;;;;;;11.65;5.70;;;;;;;;;;4996634;28;20186;-84
2023/10/07 03:56:26;;;;;;;12.13;5.18;;;;;;;;;;4992991;28;20230;-84
2023/10/07 03:58:53;;;;;;;17.60;5.53;;;;;;;;;;4991537;28;20200;-83
2023/10/07 04:01:18;;;;;;;11.73;4.95;;;;;;;;;;4994485;28;20733;-84
2023/10/07 04:03:47;;;;;;;9.52;4.78;;;;;;;;;;4995768;28;20215;-82
2023/10/07 04:06:19;;;;;;;10.85;4.05;;;;;;;;;;4997933;28;20223;-84
2023/10/07 04:08:52;;;;;;;13.13;5.65;;;;;;;;;;5005709;28;20199;-83
2023/10/07 04:11:19;;;;;;;9.80;4.68;;;;;;;;;;5000749;28;20172;-83
2023/10/07 04:13:45;;;;;;;9.20;4.35;;;;;;;;;;4999381;28;20729;-82
2023/10/07 04:16:23;;;;;;;12.48;4.57;;;;;;;;;;4998044;28;20188;-81
2023/10/07 04:18:49;;;;;;;8.82;4.28;;;;;;;;;;5002303;28;20287;-84
2023/10/07 04:21:15;;;;;;;14.90;4.53;;;;;;;;;;5001823;28;20355;-83
2023/10/07 04:23:44;;;;;;;12.85;5.15;;;;;;;;;;4998529;28;20242;-86
2023/10/07 04:26:10;;;;;;;12.70;4.28;;;;;;;;;;4997021;28;20176;-83
2023/10/07 04:28:36;;;;;;;10.75;4.80;;;;;;;;;;4998960;28;20202;-82
2023/10/07 04:31:09;;;;;;;8.23;4.43;;;;;;;;;;5002199;28;20205;-82
2023/10/07 04:33:40;;;;;;;10.23;4.05;;;;;;;;;;5004104;28;20183;-84
2023/10/07 04:36:11;;;;;;;8.20;3.97;;;;;;;;;;5005309;28;20678;-84
2023/10/07 04:43:55;;;;;;;11.30;3.97;;;;;;;;;;5007269;28;20650;-82
2023/10/07 04:46:29;;;;;;;14.13;3.80;;;;;;;;;;5002645;28;20180;-84
2023/10/07 04:49:12;;;;;;;10.85;4.57;;;;;;;;;;5003456;28;20237;-84
2023/10/07 04:51:47;;;;;;;7.80;4.20;;;;;;;;;;5001652;28;20179;-84
2023/10/07 04:54:20;;;;;;;8.05;3.80;;;;;;;;;;5001073;28;20189;-84
2023/10/07 04:56:48;;;;;;;8.60;3.45;;;;;;;;;;4999402;28;20195;-83
2023/10/07 04:59:19;;;;;;;18.90;4.55;;;;;;;;;;5003292;28;20203;-82
2023/10/07 05:01:48;;;;;;;10.02;4.82;;;;;;;;;;4998448;28;20188;-84
2023/10/07 05:04:15;;;;;;;6.75;3.58;;;;;;;;;;5000387;28;20234;-83
2023/10/07 05:06:42;;;;;;;12.20;4.38;;;;;;;;;;4997085;28;20192;-85
2023/10/07 05:09:18;;;;;;;12.75;4.68;;;;;;;;;;4998843;28;20207;-82
2023/10/07 05:11:47;;;;;;;10.43;4.43;;;;;;;;;;4999123;28;20333;-84
2023/10/07 05:14:24;;;;;;;16.77;5.05;;;;;;;;;;5003698;28;20193;-83
2023/10/07 05:16:51;;;;;;;8.45;4.18;;;;;;;;;;4998164;28;20187;-81
2023/10/07 05:19:23;;;;;;;8.02;4.07;;;;;;;;;;4997929;28;20219;-82
2023/10/07 05:24:39;;;;;;;9.02;4.45;;;;;;;;;;5001281;28;20203;-84
2023/10/07 05:27:05;;;;;;;11.02;4.63;;;;;;;;;;4993384;28;20186;-84
2023/10/07 05:29:30;;;;;;;12.23;4.60;;;;;;;;;;5002377;28;20227;-84
2023/10/07 05:31:57;;;;;;;12.90;5.60;;;;;;;;;;4997865;28;20191;-84
2023/10/07 05:34:22;;;;;;;15.70;5.93;;;;;;;;;;4999154;28;20183;-84
2023/10/07 05:36:48;;;;;;;13.57;4.78;;;;;;;;;;5001026;28;20191;-84
2023/10/07 05:39:15;;;;;;;21.60;6.50;;;;;;;;;;4998680;28;20737;-84
2023/10/07 05:41:41;;;;;;;15.48;4.88;;;;;;;;;;5007747;28;20250;-82
2023/10/07 05:44:06;;;;;;;14.60;5.65;;;;;;;;;;4997682;28;20250;-83
2023/10/07 05:46:32;;;;;;;11.93;5.78;;;;;;;;;;4996321;28;20176;-84
2023/10/07 05:48:59;;;;;;;17.05;5.93;;;;;;;;;;5016696;28;20203;-83
2023/10/07 05:51:27;;;;;;;17.80;5.90;;;;;;;;;;4998937;28;20258;-83
2023/10/07 05:53:52;;;;;;;14.80;4.80;;;;;;;;;;5012215;28;20196;-83
2023/10/07 05:56:18;;;;;;;15.05;5.72;;;;;;;;;;4996495;28;20679;-83
2023/10/07 05:58:45;;;;;;;13.38;5.10;;;;;;;;;;4999171;28;20214;-83
2023/10/07 06:01:12;;;;;;;22.60;6.25;;;;;;;;;;5000303;28;20176;-85
2023/10/07 06:03:37;;;;;;;26.45;6.30;;;;;;;;;;5004351;28;20219;-83
2023/10/07 06:06:04;;;;;;;17.52;5.93;;;;;;;;;;5014068;28;20175;-85
2023/10/07 06:08:29;;;;;;;13.13;5.43;;;;;;;;;;5002308;28;20540;-83
2023/10/07 06:10:56;;;;;;;18.25;6.20;;;;;;;;;;5000608;28;20211;-84
2023/10/07 06:13:28;;;;;;;16.95;5.70;;;;;;;;;;4998674;28;20206;-84
2023/10/07 06:15:57;;;;;;;21.00;6.88;;;;;;;;;;4999368;28;20632;-85
2023/10/07 06:18:23;;;;;;;16.42;6.50;;;;;;;;;;4999153;28;20234;-88
2023/10/07 06:20:48;;;;;;;25.88;7.47;;;;;;;;;;4998064;28;20187;-81
2023/10/07 06:23:14;;;;;;;18.90;6.57;;;;;;;;;;4998159;28;20196;-84
2023/10/07 06:25:48;;;;;;;19.55;6.85;;;;;;;;;;5001095;28;20190;-84
2023/10/07 06:28:23;;;;;;;16.67;6.95;;;;;;;;;;4998146;28;20206;-84
2023/10/07 06:30:49;;;;;;;16.50;6.28;;;;;;;;;;4996803;28;20179;-83
2023/10/07 06:33:14;;;;;;;14.43;6.32;;;;;;;;;;4997812;28;20298;-83
2023/10/07 06:35:39;;;;;;;21.25;6.93;;;;;;;;;;4997346;28;20183;-84
2023/10/07 06:38:05;;;;;;;16.55;7.28;;;;;;;;;;4997609;28;20238;-81
2023/10/07 06:40:35;;;;;;;14.48;6.45;;;;;;;;;;4999089;28;20693;-82
2023/10/07 06:43:01;;;;;;;16.40;6.38;;;;;;;;;;5023612;28;20180;-80
2023/10/07 06:45:35;;;;;;;11.23;6.63;;;;;;;;;;4999182;28;20175;-86
2023/10/07 06:48:02;;;;;;;14.45;6.97;;;;;;;;;;5016677;28;20196;-81
2023/10/07 06:50:28;;;;;;;22.08;7.03;;;;;;;;;;4991929;28;20179;-82
2023/10/07 06:52:56;;;;;;;20.85;7.85;;;;;;;;;;5005344;28;20183;-84
2023/10/07 06:55:22;;;;;;;21.98;7.68;;;;;;;;;;4993397;28;20241;-84
2023/10/07 06:57:48;;;;;;;14.10;7.45;;;;;;;;;;4996674;28;20253;-85
2023/10/07 07:00:23;;;;;;;17.10;6.30;;;;;;;;;;4996705;28;20164;-83
2023/10/07 07:02:54;;;;;;;18.67;7.40;;;;;;;;;;4997407;28;20233;-83
2023/10/07 07:05:20;;;;;;;13.98;6.25;;;;;;;;;;4997554;28;20180;-83
2023/10/07 07:07:45;;;;;;;20.58;8.02;;;;;;;;;;4994483;28;20203;-84
2023/10/07 07:10:16;;;;;;;23.50;8.20;;;;;;;;;;5001483;28;20183;-81
2023/10/07 07:12:41;;;;;;;16.52;7.30;;;;;;;;;;4998741;28;20176;-83
2023/10/07 07:15:09;;;;;;;33.25;8.43;;;;;;;;;;4993361;28;20190;-84
2023/10/07 07:17:35;;;;;;;20.80;7.95;;;;;;;;;;4997929;28;20226;-85
2023/10/07 07:22:36;;;;;;;19.02;7.93;;;;;;;;;;4998479;28;20207;-82
2023/10/07 07:25:07;;;;;;;19.15;7.85;;;;;;;;;;4998169;28;20216;-83
2023/10/07 07:27:34;;;;;;;16.83;8.25;;;;;;;;;;4996236;28;20231;-82
2023/10/07 07:30:07;;;;;;;19.60;7.05;;;;;;;;;;4994683;28;20607;-84
2023/10/07 07:32:35;;;;;;;30.48;7.63;;;;;;;;;;4995226;28;20171;-86
2023/10/07 07:35:03;;;;;;;18.60;7.25;;;;;;;;;;4993382;28;20560;-83
2023/10/07 07:37:31;;;;;;;21.35;8.70;;;;;;;;;;4998644;28;20202;-83
2023/10/07 07:39:58;;;;;;;18.48;7.57;;;;;;;;;;4992136;28;20215;-84
2023/10/07 07:42:27;;;;;;;13.68;6.40;;;;;;;;;;4990177;28;20187;-84
2023/10/07 07:44:58;;;;;;;21.88;6.55;;;;;;;;;;4994459;28;20702;-84
2023/10/07 07:47:23;;;;;;;24.30;7.03;;;;;;;;;;4997138;28;20172;-83
2023/10/07 07:49:51;;;;;;;20.67;7.03;;;;;;;;;;4994802;28;20314;-83
2023/10/07 07:52:16;;;;;;;18.52;7.07;;;;;;;;;;4995937;28;20238;-84
2023/10/07 07:54:45;;;;;;;22.88;8.35;;;;;;;;;;4997704;28;20575;-84
2023/10/07 07:57:12;;;;;;;13.73;7.30;;;;;;;;;;4994123;28;20195;-86
2023/10/07 07:59:38;;;;;;;13.98;5.70;;;;;;;;;;4994820;28;20289;-85
2023/10/07 08:02:12;;;;;;;16.77;7.00;;;;;;;;;;5013492;28;20180;-81
2023/10/07 08:05:02;;;;;;;21.13;6.18;;;;;;;;;;4992641;28;20218;-84
2023/10/07 08:07:29;;;;;;;16.40;6.88;;;;;;;;;;4993542;28;20194;-82
2023/10/07 08:09:57;;;;;;;21.98;6.63;;;;;;;;;;5033296;23;20239;-68
2023/10/07 08:12:30;;;;;;;13.30;6.18;;;;;;;;;;5044319;28;20185;-68
2023/10/07 08:14:58;;;;;;;12.18;6.10;;;;;;;;;;5038352;28;20174;-69
2023/10/07 08:17:27;;;;;;;12.38;5.70;;;;;;;;;;5038420;28;20174;-69
2023/10/07 08:19:52;;;;;;;19.25;6.22;;;;;;;;;;5040405;28;20292;-69
2023/10/07 08:22:20;;;;;;;18.52;6.20;;;;;;;;;;5054226;23;20257;-66
2023/10/07 08:24:46;;;;;;;16.92;6.18;;;;;;;;;;5009324;28;20207;-66
2023/10/07 08:30:04;;;;;;;14.57;5.82;;;;;;;;;;5007037;28;20230;-66
2023/10/07 08:32:35;;;;;;;11.70;5.43;;;;;;;;;;5004865;28;20218;-65
2023/10/07 08:35:00;;;;;;;14.07;5.45;;;;;;;;;;5007580;28;20178;-66
2023/10/07 08:37:32;;;;;;;11.38;4.65;;;;;;;;;;5008999;28;20661;-66
2023/10/07 08:40:07;;;;;;;14.50;6.30;;;;;;;;;;5008069;28;20293;-66
2023/10/07 08:42:35;;;;;;;15.32;5.50;;;;;;;;;;5007576;28;20205;-67
2023/10/07 08:45:00;;;;;;;16.35;4.90;;;;;;;;;;5009843;28;20281;-66
2023/10/07 08:47:39;;;;;;;13.85;4.80;;;;;;;;;;5010295;28;20608;-66
2023/10/07 08:50:06;;;;;;;13.82;5.32;;;;;;;;;;5007351;28;20567;-66
2023/10/07 08:52:32;;;;;;;12.57;4.63;;;;;;;;;;5010755;28;20287;-66
2023/10/07 08:54:59;;;;;;;15.10;5.78;;;;;;;;;;5012033;28;20270;-66
2023/10/07 08:57:25;;;;;;;10.95;4.15;;;;;;;;;;5011052;28;20183;-66
2023/10/07 08:59:59;;;;;;;14.30;4.47;;;;;;;;;;5011986;28;20275;-66
2023/10/07 09:02:27;;;;;;;9.52;3.63;;;;;;;;;;5011001;28;20191;-66
2023/10/07 09:04:57;;;;;;;12.95;4.88;;;;;;;;;;5012854;28;20202;-66
2023/10/07 09:07:23;;;;;;;11.85;4.22;;;;;;;;;;5012915;28;20201;-66
2023/10/07 09:09:48;;;;;;;15.32;4.25;;;;;;;;;;5011458;28;20208;-67
2023/10/07 09:14:52;;;;;;;24.50;4.60;;;;;;;;;;5011398;28;20194;-67
2023/10/07 09:17:20;;;;;;;7.07;3.67;;;;;;;;;;5009035;28;20185;-66
2023/10/07 09:19:48;;;;;;;16.42;4.45;;;;;;;;;;5012367;28;20396;-66
2023/10/07 09:22:15;;;;;;;14.93;3.90;;;;;;;;;;5012308;28;20174;-67
2023/10/07 09:24:44;;;;;;;9.32;3.83;;;;;;;;;;5012675;28;20735;-66
2023/10/07 09:27:13;;;;;;;15.68;4.13;;;;;;;;;;5012784;28;20214;-66
2023/10/07 09:29:38;;;;;;;15.90;4.30;;;;;;;;;;5008630;28;20565;-67
2023/10/07 09:32:21;;;;;;;18.25;4.22;;;;;;;;;;5012593;28;20182;-67
2023/10/07 09:34:49;;;;;;;12.32;4.38;;;;;;;;;;5012340;28;20239;-67
2023/10/07 09:37:20;;;;;;;12.60;4.00;;;;;;;;;;5012584;28;20543;-67
2023/10/07 09:39:53;;;;;;;10.75;3.63;;;;;;;;;;5012806;28;20178;-67
2023/10/07 09:42:36;;;;;;;13.40;5.03;;;;;;;;;;5012740;28;20174;-67
2023/10/07 09:47:38;;;;;;;17.10;4.07;;;;;;;;;;5011231;28;20175;-67
2023/10/07 09:50:19;;;;;;;10.55;3.95;;;;;;;;;;5011900;28;20578;-67
2023/10/07 09:52:45;;;;;;;11.70;3.75;;;;;;;;;;5012203;28;20670;-68
2023/10/07 09:55:20;;;;;;;13.35;3.58;;;;;;;;;;5011439;28;20187;-67
2023/10/07 09:57:46;;;;;;;10.05;3.70;;;;;;;;;;5012049;28;20181;-67
2023/10/07 10:01:04;;;;;;;12.52;3.75;;;;;;;;;;5009704;28;20171;-67
2023/10/07 10:03:12;;;;;;;15.88;3.53;;;;;;;;;;5012738;28;20207;-67
2023/10/07 10:05:51;;;;;;;19.77;3.95;;;;;;;;;;5012034;28;20210;-67
2023/10/07 10:08:19;;;;;;;11.38;3.60;;;;;;;;;;5011744;28;20190;-67
2023/10/07 10:10:46;;;;;;;11.02;3.58;;;;;;;;;;5008806;28;20248;-67
2023/10/07 10:14:18;;;;;;;13.13;3.50;;;;;;;;;;5007961;28;20230;-67
2023/10/07 10:16:18;;;;;;;10.32;3.17;;;;;;;;;;5006552;28;20686;-67
2023/10/07 10:18:50;;;;;;;11.75;3.53;;;;;;;;;;5010604;28;20194;-67
2023/10/07 10:21:21;;;;;;;14.73;4.30;;;;;;;;;;5005993;28;20175;-68
2023/10/07 10:23:48;;;;;;;12.57;3.22;;;;;;;;;;5010081;28;20751;-67
2023/10/07 10:26:21;;;;;;;11.02;3.05;;;;;;;;;;5008272;28;20206;-68
2023/10/07 10:29:07;;;;;;;13.43;4.68;;;;;;;;;;5009895;28;20587;-68
2023/10/07 10:31:34;;;;;;;13.82;3.38;;;;;;;;;;5010740;28;20711;-68
2023/10/07 10:34:05;;;;;;;9.70;3.25;;;;;;;;;;5009500;28;20206;-67
2023/10/07 10:36:31;;;;;;;10.82;3.50;;;;;;;;;;4997113;28;20659;-67
2023/10/07 10:39:00;;;;;;;13.82;3.90;;;;;;;;;;5010360;28;20568;-67
2023/10/07 10:41:26;;;;;;;7.80;3.35;;;;;;;;;;5008563;28;20175;-68
2023/10/07 10:44:01;;;;;;;10.77;3.45;;;;;;;;;;5008835;28;20575;-67
2023/10/07 10:46:27;;;;;;;16.15;4.18;;;;;;;;;;5007976;28;20220;-68
2023/10/07 10:48:54;;;;;;;7.90;2.97;;;;;;;;;;5024757;28;20175;-68
2023/10/07 10:51:19;;;;;;;8.73;3.55;;;;;;;;;;5023717;28;20612;-66
2023/10/07 10:53:47;;;;;;;14.50;3.42;;;;;;;;;;5010473;28;20206;-66
2023/10/07 10:56:12;;;;;;;9.07;2.90;;;;;;;;;;5010172;28;20187;-66
2023/10/07 10:58:39;;;;;;;17.50;3.13;;;;;;;;;;5011192;28;20217;-66
2023/10/07 11:01:07;;;;;;;8.90;3.60;;;;;;;;;;5005935;28;20285;-66
2023/10/07 11:03:33;;;;;;;8.32;4.93;;;;;;;;;;5011461;28;20341;-66
2023/10/07 11:06:00;;;;;;;8.48;3.80;;;;;;;;;;5009519;28;20265;-67
2023/10/07 11:08:25;;;;;;;8.20;2.90;;;;;;;;;;5013158;28;20175;-67
2023/10/07 11:10:57;;;;;;;10.48;3.65;;;;;;;;;;5010643;28;20197;-67
2023/10/07 11:13:23;;;;;;;8.18;3.35;;;;;;;;;;5012072;28;20202;-67
2023/10/07 11:15:58;;;;;;;8.95;3.40;;;;;;;;;;5013808;28;20191;-67
2023/10/07 11:18:24;;;;;;;9.60;3.00;;;;;;;;;;5011889;28;20190;-66
2023/10/07 11:20:49;;;;;;;9.07;3.60;;;;;;;;;;5009100;28;20310;-67
2023/10/07 11:23:15;;;;;;;7.03;2.80;;;;;;;;;;5012560;28;20235;-67
2023/10/07 11:25:41;;;;;;;10.40;3.10;;;;;;;;;;5010169;28;20179;-67
2023/10/07 11:28:09;;;;;;;7.47;3.95;;;;;;;;;;5010613;28;20729;-67
2023/10/07 11:30:44;;;;;;;8.10;3.58;;;;;;;;;;5009265;28;20171;-67
2023/10/07 11:33:16;;;;;;;8.20;4.00;;;;;;;;;;5017430;28;20198;-67
2023/10/07 11:35:42;;;;;;;15.40;7.25;;;;;;;;;;5008847;28;20258;-66
2023/10/07 11:38:09;;;;;;;9.52;4.32;;;;;;;;;;5004891;28;20181;-66
2023/10/07 11:40:34;;;;;;;17.70;12.90;;;;;;;;;;5010863;28;20182;-68
2023/10/07 11:43:04;;;;;;;9.80;3.30;;;;;;;;;;5013951;28;20203;-67
2023/10/07 11:45:30;;;;;;;7.47;3.03;;;;;;;;;;5001735;28;20514;-67
2023/10/07 11:47:57;;;;;;;8.18;3.65;;;;;;;;;;5010493;28;20181;-68
2023/10/07 11:50:22;;;;;;;9.98;3.38;;;;;;;;;;5009130;28;20168;-67
2023/10/07 11:52:48;;;;;;;12.77;3.65;;;;;;;;;;5008264;28;20242;-67
2023/10/07 11:55:16;;;;;;;13.80;3.97;;;;;;;;;;5009574;28;20182;-67
2023/10/07 11:57:42;;;;;;;8.07;3.65;;;;;;;;;;5007486;28;20479;-67
2023/10/07 12:00:23;;;;;;;8.55;3.35;;;;;;;;;;5006384;28;20179;-67
2023/10/07 12:02:50;;;;;;;10.25;4.28;;;;;;;;;;5008825;28;20285;-67
2023/10/07 12:05:15;;;;;;;15.50;5.10;;;;;;;;;;5006863;28;20289;-67
2023/10/07 12:07:42;;;;;;;14.35;6.38;;;;;;;;;;5010289;28;20617;-67
2023/10/07 12:10:15;;;;;;;28.30;18.35;;;;;;;;;;5009156;28;20179;-67
2023/10/07 12:12:42;;;;;;;85.25;56.17;;;;;;;;;;5008752;28;20188;-67
2023/10/07 12:15:08;;;;;;;42.88;27.75;;;;;;;;;;5010521;28;20171;-67
2023/10/07 12:17:35;;;;;;;10.82;6.53;;;;;;;;;;5006870;28;20672;-67
2023/10/07 12:20:00;;;;;;;14.55;6.70;;;;;;;;;;5010322;28;20650;-67
2023/10/07 12:22:26;;;;;;;13.55;3.97;;;;;;;;;;5008295;28;20232;-67
2023/10/07 12:24:52;;;;;;;8.13;4.03;;;;;;;;;;5006805;28;20214;-66
2023/10/07 12:27:17;;;;;;;24.45;17.50;;;;;;;;;;5010321;28;20646;-66
2023/10/07 12:29:44;;;;;;;22.15;9.75;;;;;;;;;;5011740;28;20182;-67
2023/10/07 12:32:09;;;;;;;126.07;84.32;;;;;;;;;;5009998;28;20203;-66
2023/10/07 12:34:35;;;;;;;25.17;16.90;;;;;;;;;;5013598;28;20261;-67
2023/10/07 12:37:00;;;;;;;12.85;4.57;;;;;;;;;;5010843;28;20240;-67
2023/10/07 12:39:30;;;;;;;10.85;4.32;;;;;;;;;;5013665;28;20287;-67
2023/10/07 12:41:56;;;;;;;7.07;3.63;;;;;;;;;;5014684;28;20191;-67
2023/10/07 12:44:21;;;;;;;10.05;3.63;;;;;;;;;;5014480;28;20761;-67
2023/10/07 12:46:46;;;;;;;8.90;3.25;;;;;;;;;;5010669;28;20270;-67
2023/10/07 12:49:14;;;;;;;11.45;3.72;;;;;;;;;;5010603;28;20263;-68
2023/10/07 12:51:43;;;;;;;6.82;3.28;;;;;;;;;;5012841;28;20256;-66
2023/10/07 12:54:09;;;;;;;8.13;3.90;;;;;;;;;;5011403;28;20283;-67
2023/10/07 12:56:37;;;;;;;8.70;3.72;;;;;;;;;;5011265;28;20639;-66
2023/10/07 12:59:07;;;;;;;9.57;3.33;;;;;;;;;;5012961;28;20183;-67
2023/10/07 13:01:33;;;;;;;8.10;3.20;;;;;;;;;;5011947;28;20214;-67
2023/10/07 13:03:58;;;;;;;9.02;3.83;;;;;;;;;;5016118;28;20214;-67
2023/10/07 13:06:23;;;;;;;7.33;2.93;;;;;;;;;;5013402;28;20183;-67
2023/10/07 13:08:49;;;;;;;13.93;3.35;;;;;;;;;;5011832;28;20475;-68
2023/10/07 13:11:14;;;;;;;9.02;3.65;;;;;;;;;;5012774;28;20257;-68
2023/10/07 13:13:40;;;;;;;11.30;3.38;;;;;;;;;;5013162;28;20199;-67
2023/10/07 13:16:10;;;;;;;12.30;3.63;;;;;;;;;;5013270;28;20174;-67
2023/10/07 13:18:40;;;;;;;7.38;3.80;;;;;;;;;;5013087;28;20190;-67
2023/10/07 13:21:13;;;;;;;9.10;3.63;;;;;;;;;;5009187;28;20178;-67
2023/10/07 13:23:39;;;;;;;9.50;4.05;;;;;;;;;;5008952;28;20218;-67
2023/10/07 13:26:10;;;;;;;7.35;3.47;;;;;;;;;;5015315;28;20179;-67
2023/10/07 13:28:38;;;;;;;7.05;3.53;;;;;;;;;;5011635;28;20188;-67
2023/10/07 13:31:06;;;;;;;16.25;3.53;;;;;;;;;;5013142;28;20182;-66
2023/10/07 13:33:31;;;;;;;9.07;3.25;;;;;;;;;;5012538;28;20197;-67
2023/10/07 13:35:56;;;;;;;8.18;3.30;;;;;;;;;;5011762;28;20183;-66
2023/10/07 13:38:22;;;;;;;11.20;3.67;;;;;;;;;;5008919;28;20565;-68
2023/10/07 13:40:47;;;;;;;8.00;3.80;;;;;;;;;;5015247;28;20657;-66
2023/10/07 13:43:13;;;;;;;11.32;3.70;;;;;;;;;;5017094;28;20690;-67
2023/10/07 13:45:38;;;;;;;11.70;3.72;;;;;;;;;;5012184;28;20177;-67
2023/10/07 13:48:07;;;;;;;15.43;4.68;;;;;;;;;;5012364;28;20179;-67
2023/10/07 13:50:33;;;;;;;9.20;3.40;;;;;;;;;;5010707;28;20562;-66
2023/10/07 13:58:09;;;;;;;11.70;4.80;;;;;;;;;;5010338;28;20804;-67
2023/10/07 14:03:00;;;;;;;8.85;3.45;;;;;;;;;;5012229;28;20523;-67
2023/10/07 14:05:26;;;;;;;10.25;3.70;;;;;;;;;;5011204;28;20199;-68
2023/10/07 14:07:52;;;;;;;8.60;4.03;;;;;;;;;;5010772;28;20206;-68
2023/10/07 14:10:21;;;;;;;10.50;3.50;;;;;;;;;;5008960;28;20183;-66
2023/10/07 14:12:47;;;;;;;12.82;4.32;;;;;;;;;;5011162;28;20218;-67
2023/10/07 14:15:15;;;;;;;14.95;5.07;;;;;;;;;;5017570;28;20265;-67
2023/10/07 14:17:40;;;;;;;14.55;4.10;;;;;;;;;;5008917;28;20182;-67
2023/10/07 14:20:06;;;;;;;12.98;4.35;;;;;;;;;;5012343;28;20171;-67
2023/10/07 14:22:31;;;;;;;6.03;3.78;;;;;;;;;;5033507;23;20210;-68
2023/10/07 14:24:57;;;;;;;10.13;4.00;;;;;;;;;;5008005;28;20697;-68
2023/10/07 14:27:23;;;;;;;13.50;4.20;;;;;;;;;;5009163;28;20654;-68
2023/10/07 14:29:49;;;;;;;12.85;4.70;;;;;;;;;;5011685;28;20566;-68
2023/10/07 14:32:14;;;;;;;13.90;4.63;;;;;;;;;;5013116;28;20179;-68
2023/10/07 14:34:40;;;;;;;11.80;4.20;;;;;;;;;;5013556;28;20195;-67
2023/10/07 14:37:05;;;;;;;13.40;4.50;;;;;;;;;;5012935;28;20183;-67
2023/10/07 14:39:30;;;;;;;12.50;4.20;;;;;;;;;;5013758;28;20190;-67
2023/10/07 14:41:56;;;;;;;10.20;3.95;;;;;;;;;;5009755;28;20187;-68
2023/10/07 14:44:21;;;;;;;15.68;4.00;;;;;;;;;;5013407;28;20345;-68
2023/10/07 14:46:48;;;;;;;14.70;4.20;;;;;;;;;;5011448;28;20206;-68
2023/10/07 14:49:13;;;;;;;14.93;4.97;;;;;;;;;;5009630;28;20420;-68
2023/10/07 14:51:38;;;;;;;8.13;4.07;;;;;;;;;;5009742;28;20676;-68
2023/10/07 14:54:04;;;;;;;16.38;5.00;;;;;;;;;;5010170;28;20276;-68
2023/10/07 14:56:29;;;;;;;9.45;3.80;;;;;;;;;;5009704;28;20183;-68
2023/10/07 14:58:54;;;;;;;12.90;4.18;;;;;;;;;;5010284;28;20175;-69
2023/10/07 15:01:22;;;;;;;11.73;4.15;;;;;;;;;;5010081;28;20167;-69
2023/10/07 15:03:47;;;;;;;13.15;3.83;;;;;;;;;;5010502;28;20251;-69
2023/10/07 15:06:15;;;;;;;11.95;4.13;;;;;;;;;;5008704;28;20203;-69
2023/10/07 15:08:40;;;;;;;16.20;4.55;;;;;;;;;;5011240;28;20171;-68
2023/10/07 15:11:06;;;;;;;12.60;5.30;;;;;;;;;;5013120;28;20174;-69
2023/10/07 15:13:34;;;;;;;10.95;4.63;;;;;;;;;;5009586;28;20207;-67
2023/10/07 15:16:11;;;;;;;8.30;3.15;;;;;;;;;;5011858;28;20717;-68
2023/10/07 15:18:37;;;;;;;13.77;3.92;;;;;;;;;;5009958;28;20201;-67
2023/10/07 15:21:05;;;;;;;8.18;3.55;;;;;;;;;;5010267;28;20194;-68
2023/10/07 15:23:30;;;;;;;15.15;3.90;;;;;;;;;;5010281;28;20218;-68
2023/10/07 15:25:57;;;;;;;10.35;4.38;;;;;;;;;;5011965;28;20182;-68